createdAt,value
2018-10-09T09:44:13.722Z,18.90
2018-10-09T09:46:42.866Z,18.90
2018-10-09T09:49:12.157Z,19.20
2018-10-09T09:51:41.416Z,19.40
2018-10-09T09:54:10.759Z,19.80
2018-10-09T09:56:40.607Z,20.00
2018-10-09T09:59:09.901Z,20.20
2018-10-09T10:01:40.834Z,20.40
2018-10-09T10:04:10.856Z,20.50
2018-10-09T10:06:41.375Z,20.70
2018-10-09T10:09:11.167Z,20.70
2018-10-09T10:11:41.440Z,20.80
2018-10-09T10:14:10.836Z,20.90
2018-10-09T10:16:39.993Z,20.90
2018-10-09T10:19:09.326Z,20.90
2018-10-09T10:21:38.504Z,20.90
2018-10-09T10:24:07.897Z,20.90
2018-10-09T10:26:37.391Z,20.90
2018-10-09T10:29:06.800Z,20.90
2018-10-09T10:31:36.271Z,20.90
2018-10-09T10:34:10.113Z,21.00
2018-10-09T10:36:39.552Z,21.00
2018-10-09T10:39:10.643Z,21.00
2018-10-09T10:41:40.880Z,21.10
2018-10-09T10:44:10.396Z,21.10
2018-10-09T10:46:40.776Z,21.10
2018-10-09T10:49:14.222Z,21.10
2018-10-09T10:51:43.448Z,21.10
2018-10-09T10:54:12.789Z,21.10
2018-10-09T10:56:42.093Z,21.10
2018-10-09T10:59:11.416Z,21.20
2018-10-09T11:01:40.562Z,21.20
2018-10-09T11:04:09.820Z,21.20
2018-10-09T11:06:39.041Z,21.20
2018-10-09T11:09:09.860Z,21.20
2018-10-09T11:11:39.153Z,21.20
2018-10-09T11:14:08.610Z,21.30
2018-10-09T11:16:38.377Z,21.30
2018-10-09T11:19:07.719Z,21.30
2018-10-09T11:21:37.014Z,21.30
2018-10-09T11:24:06.157Z,21.30
2018-10-09T11:26:35.277Z,21.40
2018-10-09T11:29:04.533Z,21.40
2018-10-09T11:31:33.785Z,21.30
2018-10-09T11:34:03.067Z,21.30
2018-10-09T11:36:32.457Z,21.40
2018-10-09T11:39:01.676Z,21.40
2018-10-09T11:41:30.944Z,21.40
2018-10-09T11:44:01.093Z,21.40
2018-10-09T11:46:30.229Z,21.40
2018-10-09T11:48:59.418Z,21.40
2018-10-09T11:51:28.613Z,21.40
2018-10-09T11:53:58.701Z,21.40
2018-10-09T11:56:28.016Z,21.40
2018-10-09T11:58:57.208Z,21.40
2018-10-09T12:01:26.475Z,21.40
2018-10-09T12:03:56.565Z,21.40
2018-10-09T12:06:25.801Z,21.50
2018-10-09T12:08:55.090Z,21.50
2018-10-09T12:11:24.294Z,21.50
2018-10-09T12:13:53.610Z,21.50
2018-10-09T12:16:23.035Z,21.50
2018-10-09T12:18:52.261Z,21.50
2018-10-09T12:21:21.955Z,21.50
2018-10-09T12:23:51.292Z,21.50
2018-10-09T12:26:20.649Z,21.50
2018-10-09T12:28:50.041Z,21.50
2018-10-09T12:31:19.989Z,21.50
2018-10-09T12:33:50.235Z,21.50
2018-10-09T12:36:19.809Z,21.50
2018-10-09T12:38:49.672Z,21.60
2018-10-09T12:41:19.220Z,21.50
2018-10-09T12:43:48.456Z,21.60
2018-10-09T12:46:17.857Z,21.50
2018-10-09T12:48:47.202Z,21.60
2018-10-09T12:51:16.644Z,21.60
2018-10-09T12:53:45.959Z,21.60
2018-10-09T12:56:16.160Z,21.60
2018-10-09T12:58:45.523Z,21.60
2018-10-09T13:01:15.518Z,21.60
2018-10-09T13:03:45.843Z,21.60
2018-10-09T13:06:20.782Z,21.60
2018-10-09T13:08:50.607Z,21.70
2018-10-09T13:11:34.957Z,21.70
2018-10-09T13:14:05.160Z,21.70
2018-10-09T13:16:34.557Z,21.80
2018-10-09T13:19:04.771Z,21.80
2018-10-09T13:21:34.322Z,21.80
2018-10-09T13:24:03.674Z,21.80
2018-10-09T13:26:33.149Z,21.80
2018-10-09T13:29:02.440Z,21.80
2018-10-09T13:31:31.986Z,21.90
2018-10-09T13:34:01.290Z,21.90
2018-10-09T13:36:30.446Z,21.90
2018-10-09T13:39:00.001Z,21.90
2018-10-09T13:41:29.356Z,21.90
2018-10-09T13:43:58.484Z,21.90
2018-10-09T13:46:28.089Z,22.00
2018-10-09T13:48:57.290Z,22.00
2018-10-09T13:51:27.279Z,22.00
2018-10-09T13:53:56.676Z,22.00
2018-10-09T13:56:25.939Z,22.00
2018-10-09T13:58:55.077Z,22.00
2018-10-09T14:01:25.098Z,22.00
2018-10-09T14:03:54.433Z,22.00
2018-10-09T14:06:23.798Z,22.00
2018-10-09T14:08:53.000Z,22.00
2018-10-09T14:11:22.443Z,22.00
2018-10-09T14:13:51.700Z,22.10
2018-10-09T14:16:23.534Z,22.00
2018-10-09T14:18:59.409Z,22.10
2018-10-09T14:21:30.275Z,22.10
2018-10-09T14:24:00.389Z,22.10
2018-10-09T14:26:32.701Z,22.10
2018-10-09T14:29:03.532Z,22.10
2018-10-09T14:31:34.304Z,22.10
2018-10-09T14:34:04.060Z,22.10
2018-10-09T14:36:33.676Z,22.10
2018-10-09T14:39:04.735Z,22.10
2018-10-09T14:41:34.188Z,22.10
2018-10-09T14:44:03.689Z,22.10
2018-10-09T14:46:33.138Z,22.10
2018-10-09T14:49:08.632Z,22.10
2018-10-09T14:51:37.359Z,22.10
2018-10-09T14:54:05.810Z,22.10
2018-10-09T14:56:34.497Z,22.20
2018-10-09T14:59:02.938Z,22.20
2018-10-09T15:01:31.374Z,22.20
2018-10-09T15:03:59.825Z,22.20
2018-10-09T15:06:28.245Z,22.20
2018-10-09T15:08:57.165Z,22.20
2018-10-09T15:11:27.884Z,22.20
2018-10-09T15:13:57.768Z,22.20
2018-10-09T15:16:26.911Z,22.20
2018-10-09T15:18:55.564Z,22.20
2018-10-09T15:21:24.182Z,22.20
2018-10-09T15:23:52.926Z,22.20
2018-10-09T15:26:21.327Z,22.20
2018-10-09T15:28:49.812Z,22.30
2018-10-09T15:31:18.456Z,22.30
2018-10-09T15:33:46.866Z,22.30
2018-10-09T15:36:15.330Z,22.30
2018-10-09T15:38:44.093Z,22.30
2018-10-09T15:41:19.494Z,22.30
2018-10-09T15:43:47.981Z,22.30
2018-10-09T15:46:16.856Z,22.30
2018-10-09T15:48:45.841Z,22.30
2018-10-09T15:51:14.283Z,22.30
2018-10-09T15:53:43.708Z,22.30
2018-10-09T15:56:12.310Z,22.30
2018-10-09T15:58:41.016Z,22.30
2018-10-09T16:01:10.053Z,22.30
2018-10-09T16:03:38.502Z,22.30
2018-10-09T16:06:07.344Z,22.30
2018-10-09T16:08:35.773Z,22.30
2018-10-09T16:11:04.303Z,22.30
2018-10-09T16:13:33.281Z,22.30
2018-10-09T16:16:01.721Z,22.30
2018-10-09T16:18:30.166Z,22.30
2018-10-09T16:20:58.595Z,22.30
2018-10-09T16:23:27.369Z,22.30
2018-10-09T16:25:56.085Z,22.30
2018-10-09T16:28:24.746Z,22.30
2018-10-09T16:30:53.364Z,22.30
2018-10-09T16:33:27.856Z,22.30
2018-10-09T16:35:56.941Z,22.30
2018-10-09T16:38:25.904Z,22.40
2018-10-09T16:40:54.608Z,22.50
2018-10-09T16:43:36.580Z,22.50
2018-10-09T16:46:05.838Z,22.60
2018-10-09T16:48:41.753Z,22.70
2018-10-09T16:51:25.978Z,22.70
2018-10-09T16:53:57.870Z,22.70
2018-10-09T16:56:26.966Z,22.70
2018-10-09T16:58:55.666Z,22.70
2018-10-09T17:01:25.396Z,22.80
2018-10-09T17:03:54.971Z,22.80
2018-10-09T17:06:24.337Z,22.90
2018-10-09T17:08:53.119Z,22.90
2018-10-09T17:11:23.200Z,22.90
2018-10-09T17:13:52.506Z,23.00
2018-10-09T17:16:24.816Z,23.00
2018-10-09T17:18:56.008Z,23.00
2018-10-09T17:21:28.932Z,23.00
2018-10-09T17:24:08.310Z,23.00
2018-10-09T17:26:47.497Z,23.00
2018-10-09T17:29:27.388Z,23.00
2018-10-09T17:32:02.240Z,23.00
2018-10-09T17:37:44.293Z,22.90
2018-10-09T17:40:20.363Z,22.90
2018-10-09T17:43:44.957Z,22.90
2018-10-09T17:50:17.837Z,22.90
2018-10-09T17:56:56.545Z,22.80
2018-10-09T17:59:40.580Z,22.80
2018-10-09T18:02:09.818Z,22.70
2018-10-09T18:04:38.595Z,22.70
2018-10-09T18:07:07.969Z,22.70
2018-10-09T18:09:38.067Z,22.70
2018-10-09T18:12:09.100Z,22.70
2018-10-09T18:14:38.598Z,22.70
2018-10-09T18:17:08.390Z,22.70
2018-10-09T18:19:37.781Z,22.80
2018-10-09T18:22:07.833Z,22.80
2018-10-09T18:24:36.350Z,22.80
2018-10-09T18:27:05.761Z,22.80
2018-10-09T18:29:36.027Z,22.80
2018-10-09T18:32:04.828Z,22.80
2018-10-09T18:34:33.507Z,22.90
2018-10-09T18:37:03.193Z,23.10
2018-10-09T18:39:34.503Z,23.30
2018-10-09T18:42:05.175Z,23.40
2018-10-09T18:44:36.935Z,23.60
2018-10-09T18:47:12.033Z,23.80
2018-10-09T18:49:41.261Z,24.00
2018-10-09T18:52:11.293Z,24.20
2018-10-09T18:54:45.316Z,24.30
2018-10-09T18:57:14.062Z,24.40
2018-10-09T18:59:42.919Z,24.40
2018-10-09T19:02:12.461Z,24.50
2018-10-09T19:04:41.012Z,24.60
2018-10-09T19:07:10.173Z,24.60
2018-10-09T19:09:38.725Z,24.50
2018-10-09T19:12:07.550Z,24.40
2018-10-09T19:14:36.040Z,24.40
2018-10-09T19:17:04.692Z,24.50
2018-10-09T19:19:33.725Z,24.40
2018-10-09T19:22:02.223Z,24.50
2018-10-09T19:24:31.064Z,24.50
2018-10-09T19:26:59.592Z,24.50
2018-10-09T19:29:28.904Z,24.50
2018-10-09T19:31:57.843Z,24.50
2018-10-09T19:34:27.488Z,24.60
2018-10-09T19:36:56.455Z,24.60
2018-10-09T19:39:24.958Z,24.70
2018-10-09T19:41:53.542Z,24.70
2018-10-09T19:44:22.772Z,24.70
2018-10-09T19:46:51.317Z,24.80
2018-10-09T19:49:19.728Z,24.90
2018-10-09T19:51:48.117Z,24.90
2018-10-09T19:54:16.650Z,25.10
2018-10-09T19:56:45.345Z,25.10
2018-10-09T19:59:14.602Z,25.20
2018-10-09T20:01:43.509Z,25.30
2018-10-09T20:04:12.432Z,25.40
2018-10-09T20:06:40.870Z,25.40
2018-10-09T20:09:15.837Z,25.40
2018-10-09T20:11:45.726Z,25.50
2018-10-09T20:14:15.709Z,25.60
2018-10-09T20:16:46.732Z,25.60
2018-10-09T20:19:15.893Z,25.60
2018-10-09T20:21:45.896Z,25.70
2018-10-09T20:24:17.551Z,25.60
2018-10-09T20:26:46.664Z,25.60
2018-10-09T20:29:16.980Z,25.60
2018-10-09T20:31:45.687Z,25.60
2018-10-09T20:34:14.500Z,25.70
2018-10-09T20:36:43.998Z,25.70
2018-10-09T20:39:12.523Z,25.70
2018-10-09T20:41:41.053Z,25.80
2018-10-09T20:44:09.936Z,25.90
2018-10-09T20:46:38.520Z,26.00
2018-10-09T20:49:07.418Z,26.00
2018-10-09T20:51:35.916Z,26.10
2018-10-09T20:54:04.831Z,26.10
